Time;durP1;ratioP1;P1;durP2;ratioP2;P2;SDS_P1;SDS_P2;PMS_P1;PMS_P2;Temp;Humidity;BMP_temperature;BMP_pressure;BME280_temperature;BME280_humidity;BME280_pressure;Samples;Min_cycle;Max_cycle;Signal;HPM_P1;HPM_P2
2023/05/19 00:00:02;;;;;;;2.90;2.10;;;19.10;49.30;;;;;;4997268;28;20193;-78
2023/05/19 00:02:40;;;;;;;4.10;2.40;;;19.10;49.50;;;;;;5014983;28;20220;-78
2023/05/19 00:05:09;;;;;;;4.43;2.53;;;19.10;49.40;;;;;;4998082;28;20211;-78
2023/05/19 00:07:36;;;;;;;3.33;2.10;;;19.10;49.50;;;;;;4997355;28;20247;-78
2023/05/19 00:10:04;;;;;;;4.65;2.30;;;19.10;49.40;;;;;;4997533;28;20217;-78
2023/05/19 00:12:32;;;;;;;3.60;2.35;;;19.00;49.00;;;;;;4997307;28;20225;-78
2023/05/19 00:14:59;;;;;;;2.55;2.20;;;19.00;49.00;;;;;;4997366;28;20291;-78
2023/05/19 00:17:27;;;;;;;4.07;2.20;;;19.00;49.00;;;;;;5015281;28;20216;-78
2023/05/19 00:19:55;;;;;;;3.17;2.20;;;19.00;49.00;;;;;;4997589;28;20192;-78
2023/05/19 00:22:22;;;;;;;2.45;2.25;;;19.00;49.20;;;;;;4996992;28;20223;-78
2023/05/19 00:24:49;;;;;;;2.58;2.38;;;19.00;49.40;;;;;;4997277;28;20247;-78
2023/05/19 00:27:16;;;;;;;3.35;2.50;;;19.00;49.20;;;;;;4997659;28;20259;-78
2023/05/19 00:29:43;;;;;;;3.65;2.20;;;19.00;49.20;;;;;;4997297;28;20213;-78
2023/05/19 00:32:10;;;;;;;3.42;2.30;;;19.00;49.40;;;;;;4997279;28;20235;-78
2023/05/19 00:34:37;;;;;;;2.13;1.90;;;19.00;49.40;;;;;;4981578;28;20196;-78
2023/05/19 00:37:05;;;;;;;2.47;2.15;;;19.00;49.20;;;;;;4997281;28;20204;-78
2023/05/19 00:39:32;;;;;;;4.00;2.20;;;19.00;49.20;;;;;;5014894;28;20188;-78
2023/05/19 00:42:00;;;;;;;3.00;2.33;;;18.90;49.20;;;;;;4997459;28;20251;-78
2023/05/19 00:44:27;;;;;;;2.72;2.20;;;18.90;49.30;;;;;;4997680;28;20206;-78
2023/05/19 00:46:54;;;;;;;3.30;2.20;;;18.90;49.30;;;;;;4997727;28;20620;-78
2023/05/19 00:49:21;;;;;;;4.18;2.33;;;18.90;49.40;;;;;;4998214;28;20606;-78
2023/05/19 00:51:48;;;;;;;2.55;2.35;;;18.90;49.50;;;;;;4997629;28;20227;-78
2023/05/19 00:54:17;;;;;;;3.05;2.30;;;18.90;49.40;;;;;;4997472;28;20283;-78
2023/05/19 00:56:44;;;;;;;3.42;2.22;;;18.90;49.40;;;;;;4981022;28;20563;-78
2023/05/19 00:59:11;;;;;;;2.83;2.30;;;18.90;49.50;;;;;;4997216;28;20248;-78
2023/05/19 01:01:38;;;;;;;2.70;2.25;;;18.80;49.40;;;;;;4981309;28;20627;-78
2023/05/19 01:04:08;;;;;;;2.58;2.08;;;18.80;49.40;;;;;;4981414;28;20199;-78
2023/05/19 01:06:36;;;;;;;3.22;2.33;;;18.90;49.40;;;;;;4997850;28;20193;-78
2023/05/19 01:09:03;;;;;;;3.30;2.17;;;18.80;49.40;;;;;;4997723;28;20223;-78
2023/05/19 01:11:32;;;;;;;2.38;2.13;;;18.80;49.60;;;;;;4997111;28;20263;-78
2023/05/19 01:13:59;;;;;;;3.03;2.00;;;18.80;49.60;;;;;;4996799;28;20228;-78
2023/05/19 01:16:30;;;;;;;3.38;2.30;;;18.80;49.70;;;;;;4996752;28;20292;-78
2023/05/19 01:19:01;;;;;;;3.30;2.03;;;18.80;49.60;;;;;;5014527;28;20577;-78
2023/05/19 01:22:06;;;;;;;3.25;2.30;;;18.80;49.80;;;;;;4996377;28;20667;-78
2023/05/19 01:25:03;;;;;;;3.03;2.15;;;18.80;49.80;;;;;;4996478;28;20610;-78
2023/05/19 01:27:43;;;;;;;2.28;2.00;;;18.80;49.70;;;;;;4996777;28;20573;-78
2023/05/19 01:30:33;;;;;;;2.72;2.00;;;18.80;49.80;;;;;;4996733;28;20208;-78
2023/05/19 01:33:01;;;;;;;3.35;2.20;;;18.70;49.60;;;;;;4996537;28;20221;-78
2023/05/19 01:35:29;;;;;;;2.90;2.40;;;18.70;49.80;;;;;;4996958;28;20196;-78
2023/05/19 01:37:58;;;;;;;4.47;2.03;;;18.70;49.80;;;;;;4996606;28;20200;-78
2023/05/19 01:40:26;;;;;;;2.47;2.08;;;18.70;49.80;;;;;;4996739;28;20565;-78
2023/05/19 01:42:54;;;;;;;2.70;2.00;;;18.70;49.80;;;;;;4996297;28;20717;-78
2023/05/19 01:45:21;;;;;;;2.90;2.28;;;18.70;49.90;;;;;;4996106;28;20586;-78
2023/05/19 01:47:51;;;;;;;2.80;2.15;;;18.70;49.90;;;;;;4997274;28;20575;-78
2023/05/19 01:50:19;;;;;;;2.97;2.10;;;18.70;49.80;;;;;;4999809;28;20232;-78
2023/05/19 01:52:46;;;;;;;4.07;2.20;;;18.70;49.80;;;;;;5000049;28;20703;-78
2023/05/19 01:55:13;;;;;;;3.40;2.00;;;18.70;50.40;;;;;;5017218;28;20224;-78
2023/05/19 01:57:51;;;;;;;2.60;2.10;;;18.70;49.90;;;;;;4999522;28;20204;-78
2023/05/19 02:00:22;;;;;;;2.42;2.20;;;18.70;50.00;;;;;;5000728;28;20288;-78
2023/05/19 02:02:56;;;;;;;3.10;2.08;;;18.70;50.10;;;;;;4999817;28;20757;-78
2023/05/19 02:05:29;;;;;;;2.63;2.30;;;18.70;50.00;;;;;;5000638;28;20197;-78
2023/05/19 02:08:00;;;;;;;3.10;2.30;;;18.60;50.00;;;;;;4999593;28;20192;-78
2023/05/19 02:10:29;;;;;;;3.08;2.20;;;18.70;50.20;;;;;;5000643;28;20644;-78
2023/05/19 02:12:56;;;;;;;2.83;1.98;;;18.60;50.00;;;;;;4983723;28;20217;-78
2023/05/19 02:15:25;;;;;;;2.42;2.00;;;18.60;50.00;;;;;;4983430;28;20200;-78
2023/05/19 02:17:54;;;;;;;3.58;2.40;;;18.60;50.10;;;;;;4999416;28;20201;-78
2023/05/19 02:20:22;;;;;;;2.80;2.17;;;18.60;50.10;;;;;;4999378;28;20223;-78
2023/05/19 02:22:49;;;;;;;3.97;2.30;;;18.60;50.10;;;;;;4999354;28;20806;-78
2023/05/19 02:25:16;;;;;;;2.33;2.03;;;18.60;50.10;;;;;;4983511;28;20201;-78
2023/05/19 02:27:43;;;;;;;2.72;2.22;;;18.60;50.10;;;;;;4999857;28;20200;-78
2023/05/19 02:30:11;;;;;;;2.55;2.15;;;18.60;50.10;;;;;;4999363;28;20727;-78
2023/05/19 02:32:39;;;;;;;2.70;2.20;;;18.60;50.20;;;;;;4999118;28;20216;-78
2023/05/19 02:35:08;;;;;;;2.47;1.95;;;18.60;50.20;;;;;;4998852;28;20197;-78
2023/05/19 02:37:35;;;;;;;2.53;2.22;;;18.60;50.10;;;;;;4999421;28;20592;-78
2023/05/19 02:40:03;;;;;;;2.03;1.83;;;18.60;50.20;;;;;;4998909;28;20192;-78
2023/05/19 02:42:30;;;;;;;2.42;1.98;;;18.60;50.10;;;;;;4999107;28;20269;-78
2023/05/19 02:44:57;;;;;;;2.30;2.10;;;18.50;50.10;;;;;;4998747;28;20655;-78
2023/05/19 02:47:25;;;;;;;2.63;1.92;;;18.50;50.10;;;;;;4998795;28;20197;-77
2023/05/19 02:49:51;;;;;;;3.47;2.13;;;18.50;50.10;;;;;;4998415;28;20221;-77
2023/05/19 02:52:20;;;;;;;2.22;2.00;;;18.50;50.10;;;;;;4998497;28;20229;-77
2023/05/19 02:54:47;;;;;;;2.50;2.20;;;18.50;50.10;;;;;;4998644;28;20197;-77
2023/05/19 02:57:14;;;;;;;3.95;2.22;;;18.50;50.10;;;;;;4998744;28;20220;-77
2023/05/19 02:59:42;;;;;;;3.20;2.00;;;18.50;50.10;;;;;;4997780;28;20204;-77
2023/05/19 03:02:10;;;;;;;2.35;2.00;;;18.50;50.30;;;;;;4998215;28;20278;-77
2023/05/19 03:04:40;;;;;;;3.38;1.90;;;18.50;50.20;;;;;;4982389;28;20594;-77
2023/05/19 03:07:09;;;;;;;3.78;2.58;;;18.50;50.20;;;;;;4998093;28;20193;-77
2023/05/19 03:09:37;;;;;;;2.53;2.03;;;18.50;50.10;;;;;;4999083;28;20246;-77
2023/05/19 03:12:06;;;;;;;2.45;2.15;;;18.50;50.10;;;;;;4998082;28;20217;-77
2023/05/19 03:14:33;;;;;;;3.20;2.20;;;18.50;50.10;;;;;;4982229;28;20208;-77
2023/05/19 03:17:00;;;;;;;2.88;2.00;;;18.50;50.00;;;;;;4998196;28;20224;-77
2023/05/19 03:19:28;;;;;;;2.33;2.13;;;18.50;50.10;;;;;;4998444;28;20247;-77
2023/05/19 03:21:56;;;;;;;2.55;1.73;;;18.50;50.40;;;;;;4998629;28;20224;-77
2023/05/19 03:24:22;;;;;;;2.75;1.98;;;18.50;50.40;;;;;;4982176;28;20291;-77
2023/05/19 03:26:51;;;;;;;2.33;2.13;;;18.60;50.30;;;;;;4998176;28;20232;-77
2023/05/19 03:29:19;;;;;;;2.28;1.98;;;18.60;50.30;;;;;;4997971;28;20255;-77
2023/05/19 03:31:46;;;;;;;2.00;1.80;;;18.60;50.20;;;;;;4997978;28;20243;-77
2023/05/19 03:34:15;;;;;;;2.13;1.92;;;18.70;50.30;;;;;;4997739;28;20679;-77
2023/05/19 03:36:43;;;;;;;2.40;1.88;;;18.70;50.10;;;;;;4997827;28;20207;-77
2023/05/19 03:39:15;;;;;;;2.13;1.92;;;18.70;50.00;;;;;;4998895;28;20189;-77
2023/05/19 03:41:43;;;;;;;2.42;2.00;;;18.80;49.90;;;;;;4997831;28;20718;-77
2023/05/19 03:44:11;;;;;;;2.20;2.00;;;18.80;49.80;;;;;;4997776;28;20621;-77
2023/05/19 03:46:39;;;;;;;2.17;1.98;;;18.80;49.80;;;;;;4997479;28;20197;-77
2023/05/19 03:49:21;;;;;;;2.20;2.00;;;18.80;49.70;;;;;;5015063;28;20331;-77
2023/05/19 03:52:04;;;;;;;2.95;2.13;;;18.80;49.30;;;;;;5015134;28;20213;-77
2023/05/19 03:54:56;;;;;;;2.00;1.80;;;18.90;49.40;;;;;;5014716;28;20584;-77
2023/05/19 03:57:23;;;;;;;2.83;1.90;;;18.80;49.30;;;;;;4997314;28;20197;-77
2023/05/19 03:59:52;;;;;;;2.83;1.98;;;18.80;49.30;;;;;;4981494;28;20192;-77
2023/05/19 04:02:20;;;;;;;1.92;1.83;;;18.90;49.40;;;;;;4981460;28;20212;-77
2023/05/19 04:04:49;;;;;;;2.70;1.90;;;18.90;49.50;;;;;;4997208;28;20255;-77
2023/05/19 04:07:16;;;;;;;2.80;1.90;;;18.90;49.40;;;;;;4998413;28;20197;-77
2023/05/19 04:09:43;;;;;;;2.40;2.08;;;18.80;49.20;;;;;;4997225;28;20201;-77
2023/05/19 04:12:10;;;;;;;2.17;1.90;;;18.80;49.20;;;;;;4982168;28;20260;-78
2023/05/19 04:14:38;;;;;;;2.30;1.80;;;18.80;49.10;;;;;;4999493;28;20197;-78
2023/05/19 04:17:06;;;;;;;2.42;1.75;;;18.80;49.20;;;;;;4999278;28;20197;-78
2023/05/19 04:19:34;;;;;;;2.80;2.08;;;18.80;49.20;;;;;;4997799;28;20193;-78
2023/05/19 04:22:01;;;;;;;2.67;2.10;;;18.80;49.20;;;;;;4997809;28;20702;-78
2023/05/19 04:24:29;;;;;;;3.78;2.03;;;18.80;49.10;;;;;;4981800;28;20192;-78
2023/05/19 04:27:01;;;;;;;2.90;1.90;;;18.80;49.30;;;;;;4998858;28;20215;-78
2023/05/19 04:29:28;;;;;;;2.42;2.00;;;18.80;49.20;;;;;;5000608;28;20283;-78
2023/05/19 04:31:56;;;;;;;2.65;2.10;;;18.80;49.20;;;;;;4999310;28;20221;-78
2023/05/19 04:34:27;;;;;;;2.53;2.03;;;18.80;49.20;;;;;;4997454;28;20205;-78
2023/05/19 04:36:55;;;;;;;2.20;1.77;;;18.80;49.30;;;;;;4997924;28;20196;-78
2023/05/19 04:39:22;;;;;;;2.30;2.10;;;18.80;49.30;;;;;;4997126;28;20204;-78
2023/05/19 04:41:52;;;;;;;3.20;2.00;;;18.80;49.30;;;;;;4996774;28;20300;-78
2023/05/19 04:44:20;;;;;;;2.23;1.90;;;18.80;49.20;;;;;;5037578;22;20203;-78
2023/05/19 04:46:52;;;;;;;2.45;2.20;;;18.80;49.20;;;;;;4997103;28;20205;-78
2023/05/19 04:49:23;;;;;;;3.08;2.17;;;18.80;49.20;;;;;;4996627;28;20212;-78
2023/05/19 04:51:51;;;;;;;2.42;1.98;;;18.80;49.00;;;;;;4964749;28;20224;-79
2023/05/19 04:54:23;;;;;;;2.80;1.85;;;18.80;49.00;;;;;;4997235;28;20185;-78
2023/05/19 04:56:51;;;;;;;2.40;1.95;;;18.80;49.00;;;;;;4996372;28;20200;-78
2023/05/19 04:59:19;;;;;;;2.53;1.83;;;18.80;49.00;;;;;;4996374;28;20201;-78
2023/05/19 05:01:46;;;;;;;2.70;2.00;;;18.90;49.00;;;;;;4996152;28;20224;-78
2023/05/19 05:04:15;;;;;;;2.97;2.20;;;18.90;48.90;;;;;;4996197;28;20378;-78
2023/05/19 05:06:46;;;;;;;2.47;2.28;;;19.00;49.00;;;;;;4996489;28;20196;-78
2023/05/19 05:09:15;;;;;;;3.03;2.17;;;19.00;48.80;;;;;;4980861;28;20201;-78
2023/05/19 05:11:43;;;;;;;2.78;1.92;;;19.10;48.80;;;;;;4995985;28;20726;-78
2023/05/19 05:14:11;;;;;;;2.88;1.90;;;19.10;48.70;;;;;;4996111;28;20283;-78
2023/05/19 05:16:39;;;;;;;2.83;2.20;;;19.10;48.30;;;;;;4996287;28;20200;-78
2023/05/19 05:19:09;;;;;;;3.58;2.15;;;19.20;48.30;;;;;;4996422;28;20226;-78
2023/05/19 05:21:36;;;;;;;3.15;2.08;;;19.30;48.20;;;;;;4996250;28;20216;-78
2023/05/19 05:24:05;;;;;;;3.97;2.00;;;19.30;48.20;;;;;;4999247;28;20275;-78
2023/05/19 05:26:35;;;;;;;2.15;1.95;;;19.40;47.90;;;;;;5000620;28;20224;-78
2023/05/19 05:29:02;;;;;;;2.33;2.10;;;19.40;47.70;;;;;;5000621;28;20200;-78
2023/05/19 05:31:30;;;;;;;3.72;2.10;;;19.50;47.40;;;;;;4999710;28;20228;-78
2023/05/19 05:33:58;;;;;;;3.78;2.30;;;19.60;47.30;;;;;;4999916;28;20201;-78
2023/05/19 05:36:29;;;;;;;2.47;2.00;;;19.60;47.20;;;;;;5000411;28;20217;-78
2023/05/19 05:38:58;;;;;;;3.28;2.13;;;19.70;47.10;;;;;;5000109;28;20255;-78
2023/05/19 05:41:26;;;;;;;3.03;2.30;;;19.80;47.10;;;;;;4999857;28;20221;-78
2023/05/19 05:43:55;;;;;;;3.67;2.20;;;19.90;47.00;;;;;;4999739;28;20568;-79
2023/05/19 05:46:23;;;;;;;3.10;2.10;;;20.00;46.70;;;;;;5000285;28;20291;-79
2023/05/19 05:48:51;;;;;;;3.20;2.00;;;20.10;46.70;;;;;;5000799;28;20204;-79
2023/05/19 05:51:20;;;;;;;2.75;2.05;;;20.20;46.50;;;;;;5000048;28;20225;-79
2023/05/19 05:53:49;;;;;;;2.78;1.77;;;20.20;46.40;;;;;;5002865;28;20196;-79
2023/05/19 05:56:18;;;;;;;2.78;1.88;;;20.30;46.40;;;;;;5004261;28;20189;-79
2023/05/19 05:58:50;;;;;;;2.67;1.90;;;20.40;46.20;;;;;;5005862;28;20543;-79
2023/05/19 06:01:19;;;;;;;2.28;1.98;;;20.50;46.20;;;;;;5002527;28;20212;-80
2023/05/19 06:03:47;;;;;;;3.55;2.05;;;20.60;46.20;;;;;;5000669;28;20211;-79
2023/05/19 06:06:19;;;;;;;3.08;2.00;;;20.70;46.10;;;;;;5001668;28;20197;-79
2023/05/19 06:08:46;;;;;;;3.47;1.90;;;20.90;45.90;;;;;;5002857;28;20311;-77
2023/05/19 06:11:13;;;;;;;2.55;2.20;;;21.00;45.60;;;;;;5000425;28;20312;-79
2023/05/19 06:13:41;;;;;;;2.17;1.95;;;21.20;45.50;;;;;;5000181;28;20289;-78
2023/05/19 06:16:12;;;;;;;2.17;1.98;;;21.30;45.10;;;;;;5000647;28;20197;-79
2023/05/19 06:18:45;;;;;;;3.17;1.95;;;21.40;45.00;;;;;;4999593;28;20189;-79
2023/05/19 06:21:12;;;;;;;3.10;2.00;;;21.50;44.90;;;;;;4999760;28;20267;-78
2023/05/19 06:23:39;;;;;;;2.53;1.90;;;21.60;44.70;;;;;;4999977;28;20667;-78
2023/05/19 06:26:08;;;;;;;3.72;1.98;;;21.70;44.50;;;;;;4999886;28;20219;-79
2023/05/19 06:28:35;;;;;;;2.63;1.65;;;21.70;44.20;;;;;;4999734;28;20673;-79
2023/05/19 06:31:02;;;;;;;1.75;1.65;;;21.90;44.20;;;;;;5000112;28;20667;-80
2023/05/19 06:33:52;;;;;;;2.08;1.75;;;21.90;44.00;;;;;;5000789;28;20197;-79
2023/05/19 06:36:20;;;;;;;2.10;1.83;;;22.00;43.80;;;;;;5001234;28;20266;-79
2023/05/19 06:38:48;;;;;;;2.60;2.10;;;22.10;43.70;;;;;;5000705;28;20263;-78
2023/05/19 06:41:16;;;;;;;3.13;2.22;;;22.20;43.60;;;;;;5004952;28;20228;-78
2023/05/19 06:43:43;;;;;;;2.42;2.00;;;22.10;43.40;;;;;;5010412;28;20232;-78
2023/05/19 06:46:16;;;;;;;2.72;1.80;;;22.20;43.40;;;;;;5002852;28;20255;-78
2023/05/19 06:48:43;;;;;;;2.22;1.73;;;22.20;43.40;;;;;;4999934;28;20204;-78
2023/05/19 06:51:14;;;;;;;2.42;2.22;;;22.20;43.40;;;;;;5000109;28;20312;-78
2023/05/19 06:53:41;;;;;;;2.20;2.00;;;22.20;43.20;;;;;;4984627;28;20189;-78
2023/05/19 06:56:10;;;;;;;2.10;1.90;;;22.20;43.30;;;;;;5000217;28;20192;-78
2023/05/19 06:58:39;;;;;;;2.10;1.90;;;22.20;43.40;;;;;;4999930;28;20678;-78
2023/05/19 07:01:07;;;;;;;2.63;1.98;;;22.20;43.50;;;;;;4984801;28;20237;-79
2023/05/19 07:03:41;;;;;;;3.67;1.95;;;22.10;43.50;;;;;;4998923;28;20188;-78
2023/05/19 07:06:09;;;;;;;1.95;1.80;;;22.00;43.60;;;;;;4999537;28;20197;-78
2023/05/19 07:08:38;;;;;;;3.42;1.90;;;21.90;43.70;;;;;;4999182;28;20204;-78
2023/05/19 07:11:07;;;;;;;2.33;1.70;;;21.90;43.80;;;;;;4999472;28;20248;-78
2023/05/19 07:13:34;;;;;;;2.00;1.80;;;21.90;44.00;;;;;;4999137;28;20267;-78
2023/05/19 07:16:02;;;;;;;2.10;1.90;;;21.70;44.00;;;;;;4998835;28;20200;-78
2023/05/19 07:18:30;;;;;;;1.88;1.75;;;21.70;44.10;;;;;;4982783;28;20659;-78
2023/05/19 07:20:58;;;;;;;2.25;1.70;;;21.70;44.20;;;;;;4982877;28;20209;-78
2023/05/19 07:23:25;;;;;;;2.13;1.83;;;21.60;44.20;;;;;;5000012;28;20197;-78
2023/05/19 07:25:56;;;;;;;2.50;1.90;;;21.60;44.30;;;;;;4987118;28;20659;-78
2023/05/19 07:28:23;;;;;;;2.13;1.90;;;21.60;44.40;;;;;;5013412;28;20185;-78
2023/05/19 07:30:49;;;;;;;2.40;1.70;;;21.60;44.50;;;;;;5027617;28;20220;-78
2023/05/19 07:33:17;;;;;;;2.92;1.80;;;21.50;44.50;;;;;;5003877;28;20295;-78
2023/05/19 07:35:45;;;;;;;1.92;1.73;;;21.50;44.50;;;;;;4994639;28;20201;-78
2023/05/19 07:38:11;;;;;;;2.45;1.70;;;21.50;44.50;;;;;;5006012;28;20633;-78
2023/05/19 07:40:39;;;;;;;2.15;1.90;;;21.50;44.50;;;;;;5000963;28;20244;-78
2023/05/19 07:43:07;;;;;;;3.33;1.70;;;21.50;44.50;;;;;;4998714;28;20278;-78
2023/05/19 07:45:34;;;;;;;2.30;1.90;;;21.50;44.50;;;;;;4998033;28;20212;-78
2023/05/19 07:48:01;;;;;;;2.47;1.58;;;21.50;44.50;;;;;;4999214;28;20189;-79
2023/05/19 07:50:28;;;;;;;1.73;1.63;;;21.50;44.60;;;;;;4998137;28;20275;-78
2023/05/19 07:52:55;;;;;;;2.22;1.95;;;21.50;44.60;;;;;;4998169;28;20238;-78
2023/05/19 07:55:23;;;;;;;1.70;1.60;;;21.50;44.60;;;;;;4997811;28;20647;-77
2023/05/19 07:57:50;;;;;;;1.70;1.60;;;21.40;44.50;;;;;;4998072;28;20600;-78
2023/05/19 08:00:19;;;;;;;1.95;1.77;;;21.40;44.60;;;;;;4997470;28;20196;-78
2023/05/19 08:02:47;;;;;;;2.40;1.95;;;21.40;44.70;;;;;;4997692;28;20221;-78
2023/05/19 08:05:14;;;;;;;1.88;1.70;;;21.40;44.70;;;;;;4997316;28;20694;-78
2023/05/19 08:07:41;;;;;;;2.03;1.83;;;21.40;44.70;;;;;;4997324;28;20220;-77
2023/05/19 08:10:08;;;;;;;1.75;1.52;;;21.30;44.50;;;;;;4997232;28;20197;-77
2023/05/19 08:12:36;;;;;;;2.20;1.65;;;21.30;44.60;;;;;;4997033;28;20311;-77
2023/05/19 08:15:04;;;;;;;3.20;2.08;;;21.30;44.70;;;;;;4997457;28;20197;-77
2023/05/19 08:17:32;;;;;;;2.85;1.90;;;21.30;44.70;;;;;;5014711;28;20628;-77
2023/05/19 08:20:00;;;;;;;2.88;1.90;;;21.30;44.40;;;;;;4996998;28;20200;-77
2023/05/19 08:22:26;;;;;;;2.05;1.90;;;21.30;44.60;;;;;;4997980;28;20255;-77
2023/05/19 08:24:53;;;;;;;1.80;1.70;;;21.30;44.60;;;;;;4997088;28;20263;-77
2023/05/19 08:27:20;;;;;;;2.45;2.08;;;21.30;44.40;;;;;;4997022;28;20193;-77
2023/05/19 08:29:47;;;;;;;2.17;1.88;;;21.20;44.40;;;;;;4996940;28;20570;-77
2023/05/19 08:32:14;;;;;;;3.53;2.30;;;21.20;44.50;;;;;;4996982;28;20679;-77
2023/05/19 08:34:42;;;;;;;2.22;1.80;;;21.20;44.50;;;;;;4997694;28;20197;-77
2023/05/19 08:37:10;;;;;;;2.05;1.70;;;21.20;44.60;;;;;;4999457;28;20223;-77
2023/05/19 08:39:37;;;;;;;2.05;1.85;;;21.10;44.70;;;;;;4999732;28;20283;-77
2023/05/19 08:42:06;;;;;;;1.95;1.67;;;21.10;44.80;;;;;;4997041;28;20248;-77
2023/05/19 08:44:33;;;;;;;2.60;2.28;;;21.10;44.70;;;;;;4996600;28;20287;-77
2023/05/19 08:47:02;;;;;;;2.17;1.90;;;21.10;44.80;;;;;;4997000;28;20200;-77
2023/05/19 08:49:29;;;;;;;2.33;1.90;;;21.20;44.70;;;;;;4996382;28;20670;-77
2023/05/19 08:52:02;;;;;;;3.05;2.10;;;21.10;44.80;;;;;;4996338;28;20238;-77
2023/05/19 08:54:33;;;;;;;2.03;1.83;;;21.10;44.50;;;;;;4996731;28;20239;-77
2023/05/19 08:57:01;;;;;;;2.45;1.80;;;21.10;44.80;;;;;;4996056;28;20192;-77
2023/05/19 08:59:28;;;;;;;2.30;1.83;;;21.10;44.90;;;;;;4996370;28;20236;-77
2023/05/19 09:01:55;;;;;;;3.58;1.90;;;21.10;44.70;;;;;;4997021;28;20209;-77
2023/05/19 09:04:22;;;;;;;2.53;1.95;;;21.10;44.70;;;;;;4997035;28;20200;-78
2023/05/19 09:06:50;;;;;;;2.33;2.00;;;21.10;44.70;;;;;;4996659;28;20200;-78
2023/05/19 09:09:18;;;;;;;2.60;2.05;;;21.10;44.70;;;;;;4996392;28;20259;-78
2023/05/19 09:11:46;;;;;;;3.20;2.20;;;21.10;44.60;;;;;;4996186;28;20235;-78
2023/05/19 09:14:13;;;;;;;2.80;2.10;;;21.10;44.70;;;;;;4996316;28;20239;-77
2023/05/19 09:16:40;;;;;;;2.38;2.17;;;21.10;44.80;;;;;;4996161;28;20200;-77
2023/05/19 09:19:14;;;;;;;2.80;1.90;;;21.10;44.60;;;;;;4996174;28;20255;-77
2023/05/19 09:21:41;;;;;;;3.58;1.67;;;21.10;44.60;;;;;;4996267;28;20224;-77
2023/05/19 09:24:09;;;;;;;1.90;1.80;;;21.10;44.60;;;;;;4996130;28;20197;-77
2023/05/19 09:26:38;;;;;;;2.10;1.90;;;21.10;44.90;;;;;;4996163;28;20200;-77
2023/05/19 09:29:11;;;;;;;2.95;2.05;;;21.10;44.90;;;;;;4996304;28;20598;-77
2023/05/19 09:31:38;;;;;;;2.47;2.15;;;21.10;44.80;;;;;;4995977;28;20295;-77
2023/05/19 09:34:12;;;;;;;2.65;1.80;;;21.10;44.90;;;;;;4979876;28;20201;-77
2023/05/19 09:36:40;;;;;;;3.33;2.08;;;21.10;44.90;;;;;;4997312;28;20271;-77
2023/05/19 09:39:13;;;;;;;2.28;1.90;;;21.10;44.80;;;;;;4995963;28;20586;-77
2023/05/19 09:41:42;;;;;;;2.92;2.40;;;21.10;44.70;;;;;;4996192;28;20762;-77
2023/05/19 09:44:13;;;;;;;3.03;1.88;;;21.10;44.60;;;;;;4995994;28;20193;-77
2023/05/19 09:46:47;;;;;;;3.03;1.98;;;21.10;44.70;;;;;;4996582;28;20200;-77
2023/05/19 09:49:19;;;;;;;3.25;2.30;;;21.10;44.70;;;;;;4995891;28;20254;-77
2023/05/19 09:51:47;;;;;;;2.00;1.80;;;21.10;44.60;;;;;;4995897;28;20217;-77
2023/05/19 09:54:15;;;;;;;2.03;1.67;;;21.10;44.70;;;;;;4996342;28;20197;-77
2023/05/19 09:56:43;;;;;;;3.60;2.30;;;21.10;44.70;;;;;;4996079;28;20220;-77
2023/05/19 09:59:11;;;;;;;2.85;2.03;;;21.10;44.60;;;;;;4995833;28;20201;-77
2023/05/19 10:01:39;;;;;;;3.40;2.25;;;21.10;44.60;;;;;;4995903;28;20279;-77
2023/05/19 10:04:07;;;;;;;2.63;2.30;;;21.10;44.60;;;;;;4995985;28;20209;-77
2023/05/19 10:06:34;;;;;;;2.47;1.92;;;21.10;44.30;;;;;;4979984;28;20247;-76
2023/05/19 10:09:01;;;;;;;2.55;2.03;;;21.10;44.40;;;;;;4997263;28;20255;-77
2023/05/19 10:11:30;;;;;;;2.65;2.05;;;21.00;44.40;;;;;;5017467;28;20300;-77
2023/05/19 10:14:00;;;;;;;3.25;2.00;;;21.10;44.40;;;;;;4999986;28;20697;-77
2023/05/19 10:16:27;;;;;;;2.85;2.00;;;21.10;44.60;;;;;;4999936;28;20255;-77
2023/05/19 10:18:54;;;;;;;2.55;1.98;;;21.10;44.80;;;;;;4999299;28;20197;-77
2023/05/19 10:21:22;;;;;;;2.95;2.03;;;21.10;44.90;;;;;;5000329;28;20224;-77
2023/05/19 10:23:49;;;;;;;2.30;1.90;;;21.10;44.90;;;;;;4999198;28;20201;-77
2023/05/19 10:26:16;;;;;;;2.00;1.80;;;21.10;45.10;;;;;;4999319;28;20659;-77
2023/05/19 10:28:43;;;;;;;2.97;2.00;;;21.00;44.70;;;;;;4999125;28;20200;-77
2023/05/19 10:31:13;;;;;;;2.30;1.88;;;21.00;44.40;;;;;;5016728;28;20213;-77
2023/05/19 10:33:47;;;;;;;2.22;2.03;;;21.10;44.90;;;;;;4999134;28;20216;-77
2023/05/19 10:36:23;;;;;;;3.38;2.50;;;21.00;44.90;;;;;;5017070;28;20181;-77
2023/05/19 10:38:53;;;;;;;2.65;2.10;;;21.10;44.60;;;;;;5001672;28;20575;-76
2023/05/19 10:41:30;;;;;;;3.42;2.00;;;21.00;44.80;;;;;;4999755;28;20312;-76
2023/05/19 10:46:41;;;;;;;2.15;1.95;;;21.00;44.60;;;;;;5033157;28;20214;-77
2023/05/19 10:49:08;;;;;;;4.68;2.00;;;21.10;44.60;;;;;;5019359;28;20196;-77
2023/05/19 10:51:36;;;;;;;2.00;1.80;;;21.00;44.30;;;;;;5019128;28;20240;-77
2023/05/19 10:54:06;;;;;;;1.70;1.60;;;21.10;44.60;;;;;;5019523;28;20235;-77
2023/05/19 10:56:35;;;;;;;2.13;1.83;;;21.00;45.40;;;;;;5036904;28;20184;-77
2023/05/19 10:59:02;;;;;;;2.58;2.03;;;21.00;44.90;;;;;;5019152;28;20266;-77
2023/05/19 11:01:32;;;;;;;2.13;1.92;;;21.00;44.80;;;;;;5019336;28;20219;-77
2023/05/19 11:04:07;;;;;;;2.30;2.10;;;21.00;45.00;;;;;;5019991;28;20223;-77
2023/05/19 11:06:36;;;;;;;1.70;1.60;;;21.00;45.20;;;;;;5019012;28;20242;-77
2023/05/19 11:09:12;;;;;;;2.05;1.70;;;21.00;45.30;;;;;;5018669;28;20200;-77
2023/05/19 11:11:46;;;;;;;1.90;1.80;;;20.90;45.20;;;;;;5018625;28;20223;-77
2023/05/19 11:14:15;;;;;;;2.00;1.80;;;21.00;45.40;;;;;;5018889;28;20224;-77
2023/05/19 11:16:44;;;;;;;1.92;1.77;;;21.00;45.10;;;;;;5018571;28;20238;-77
2023/05/19 11:19:19;;;;;;;1.92;1.80;;;21.00;45.00;;;;;;5035947;28;20216;-77
2023/05/19 11:21:51;;;;;;;2.08;1.90;;;21.00;45.00;;;;;;5017952;28;20574;-77
2023/05/19 11:24:33;;;;;;;2.90;1.83;;;21.00;45.10;;;;;;5018989;28;20207;-77
2023/05/19 11:27:00;;;;;;;2.10;1.70;;;21.00;45.20;;;;;;5017345;28;20199;-77
2023/05/19 11:29:27;;;;;;;2.42;2.00;;;20.90;45.00;;;;;;5018288;28;20738;-77
2023/05/19 11:31:55;;;;;;;2.30;2.03;;;21.00;44.90;;;;;;5018215;28;20220;-77
2023/05/19 11:34:24;;;;;;;2.40;1.90;;;20.90;44.70;;;;;;5017788;28;20200;-77
2023/05/19 11:36:52;;;;;;;2.22;1.88;;;20.90;44.90;;;;;;5017730;28;20207;-77
2023/05/19 11:39:20;;;;;;;2.58;1.88;;;20.90;45.10;;;;;;5018339;28;20299;-77
2023/05/19 11:41:48;;;;;;;2.88;1.98;;;20.90;44.90;;;;;;5018971;28;20220;-77
2023/05/19 11:44:15;;;;;;;2.20;2.00;;;20.90;45.00;;;;;;5018619;28;20285;-77
2023/05/19 11:46:42;;;;;;;2.15;1.95;;;20.90;44.90;;;;;;5017694;28;20227;-77
2023/05/19 11:49:09;;;;;;;3.03;1.83;;;20.90;44.70;;;;;;5018666;28;20200;-77
2023/05/19 11:51:38;;;;;;;4.82;2.17;;;20.90;44.80;;;;;;5017953;28;20220;-77
2023/05/19 11:54:05;;;;;;;2.58;2.00;;;20.90;44.70;;;;;;5017517;28;20282;-77
2023/05/19 11:56:34;;;;;;;2.33;1.90;;;20.90;44.70;;;;;;5018149;28;20261;-77
2023/05/19 11:59:01;;;;;;;3.15;2.00;;;20.90;44.70;;;;;;5017497;28;20215;-77
2023/05/19 12:01:30;;;;;;;2.45;1.85;;;20.90;44.90;;;;;;5017587;28;20622;-77
2023/05/19 12:03:58;;;;;;;2.03;1.85;;;20.90;45.00;;;;;;5017380;28;20202;-77
2023/05/19 12:06:27;;;;;;;2.35;1.83;;;20.90;45.00;;;;;;5018182;28;20203;-77
2023/05/19 12:08:56;;;;;;;2.20;1.83;;;20.90;45.20;;;;;;5003881;28;20219;-77
2023/05/19 12:11:23;;;;;;;2.92;2.10;;;21.00;45.30;;;;;;5020589;28;20230;-77
2023/05/19 12:13:53;;;;;;;2.42;1.90;;;20.90;45.00;;;;;;5020815;28;20266;-77
2023/05/19 12:16:21;;;;;;;2.15;1.95;;;20.90;45.10;;;;;;5019779;28;20184;-77
2023/05/19 12:18:48;;;;;;;2.25;2.00;;;20.90;45.10;;;;;;5020560;28;20290;-77
2023/05/19 12:21:16;;;;;;;2.13;1.92;;;20.90;45.00;;;;;;5020399;28;20227;-77
2023/05/19 12:23:43;;;;;;;2.15;1.95;;;20.90;44.90;;;;;;5020038;28;20291;-77
2023/05/19 12:26:12;;;;;;;2.55;1.92;;;20.90;45.00;;;;;;5019383;28;20203;-77
2023/05/19 12:28:40;;;;;;;2.58;2.08;;;20.80;44.90;;;;;;5019968;28;20200;-77
2023/05/19 12:31:07;;;;;;;2.35;2.00;;;20.80;44.80;;;;;;5019506;28;20220;-77
2023/05/19 12:33:34;;;;;;;2.30;2.10;;;20.80;44.90;;;;;;5019109;28;20679;-77
2023/05/19 12:36:01;;;;;;;2.65;2.15;;;20.80;45.00;;;;;;5019609;28;20200;-77
2023/05/19 12:38:28;;;;;;;2.30;1.90;;;20.80;44.90;;;;;;5018814;28;20257;-77
2023/05/19 12:40:58;;;;;;;2.20;2.00;;;20.80;45.00;;;;;;5019465;28;20216;-77
2023/05/19 12:43:27;;;;;;;4.78;2.05;;;20.80;45.10;;;;;;5019261;28;20200;-77
2023/05/19 12:45:54;;;;;;;2.22;2.03;;;20.80;45.00;;;;;;5018693;28;20212;-77
2023/05/19 12:48:22;;;;;;;1.80;1.70;;;20.80;45.40;;;;;;5017792;28;20227;-77
2023/05/19 12:50:52;;;;;;;2.55;2.33;;;20.90;45.80;;;;;;5016937;28;20200;-78
2023/05/19 12:53:19;;;;;;;2.58;1.92;;;20.90;45.70;;;;;;5018592;28;20243;-78
2023/05/19 12:55:47;;;;;;;3.67;2.15;;;20.90;45.60;;;;;;5019212;28;20203;-78
2023/05/19 12:58:15;;;;;;;4.05;1.98;;;20.90;45.40;;;;;;5020013;28;20678;-78